sensor_id;sensor_type;location;lat;lon;timestamp;P1;durP1;ratioP1;P2;durP2;ratioP2
41663;SDS011;27353;50.906;7.248;2022-12-16T00:01:55;52.10;;;28.60;;
41663;SDS011;27353;50.906;7.248;2022-12-16T00:04:22;49.85;;;31.50;;
41663;SDS011;27353;50.906;7.248;2022-12-16T00:06:47;47.10;;;26.70;;
41663;SDS011;27353;50.906;7.248;2022-12-16T00:09:13;42.35;;;25.95;;
41663;SDS011;27353;50.906;7.248;2022-12-16T00:11:39;45.35;;;25.42;;
41663;SDS011;27353;50.906;7.248;2022-12-16T00:14:04;49.65;;;27.30;;
41663;SDS011;27353;50.906;7.248;2022-12-16T00:16:30;44.80;;;28.63;;
41663;SDS011;27353;50.906;7.248;2022-12-16T00:18:55;45.38;;;27.15;;
41663;SDS011;27353;50.906;7.248;2022-12-16T00:21:21;43.75;;;27.85;;
41663;SDS011;27353;50.906;7.248;2022-12-16T00:23:52;47.00;;;27.13;;
41663;SDS011;27353;50.906;7.248;2022-12-16T00:26:18;44.92;;;28.58;;
41663;SDS011;27353;50.906;7.248;2022-12-16T00:28:43;44.90;;;28.20;;
41663;SDS011;27353;50.906;7.248;2022-12-16T00:31:09;42.22;;;27.83;;
41663;SDS011;27353;50.906;7.248;2022-12-16T00:33:35;46.85;;;31.27;;
41663;SDS011;27353;50.906;7.248;2022-12-16T00:36:00;45.35;;;26.52;;
41663;SDS011;27353;50.906;7.248;2022-12-16T00:38:26;45.67;;;28.02;;
41663;SDS011;27353;50.906;7.248;2022-12-16T00:40:51;44.95;;;28.88;;
41663;SDS011;27353;50.906;7.248;2022-12-16T00:43:17;48.63;;;26.33;;
41663;SDS011;27353;50.906;7.248;2022-12-16T00:45:44;45.35;;;29.15;;
41663;SDS011;27353;50.906;7.248;2022-12-16T00:48:10;47.80;;;29.08;;
41663;SDS011;27353;50.906;7.248;2022-12-16T00:50:36;41.38;;;27.50;;
41663;SDS011;27353;50.906;7.248;2022-12-16T00:53:02;37.47;;;28.20;;
41663;SDS011;27353;50.906;7.248;2022-12-16T00:55:28;48.35;;;28.88;;
41663;SDS011;27353;50.906;7.248;2022-12-16T00:57:54;43.03;;;27.52;;
41663;SDS011;27353;50.906;7.248;2022-12-16T01:00:20;41.65;;;26.88;;
41663;SDS011;27353;50.906;7.248;2022-12-16T01:02:46;45.35;;;25.15;;
41663;SDS011;27353;50.906;7.248;2022-12-16T01:05:14;40.47;;;28.55;;
41663;SDS011;27353;50.906;7.248;2022-12-16T01:07:41;44.80;;;29.02;;
41663;SDS011;27353;50.906;7.248;2022-12-16T01:10:08;42.22;;;27.65;;
41663;SDS011;27353;50.906;7.248;2022-12-16T01:12:35;44.35;;;28.35;;
41663;SDS011;27353;50.906;7.248;2022-12-16T01:15:01;36.28;;;26.58;;
41663;SDS011;27353;50.906;7.248;2022-12-16T01:17:28;35.65;;;25.15;;
41663;SDS011;27353;50.906;7.248;2022-12-16T01:19:54;41.67;;;24.23;;
41663;SDS011;27353;50.906;7.248;2022-12-16T01:22:20;52.15;;;29.50;;
41663;SDS011;27353;50.906;7.248;2022-12-16T01:24:46;44.83;;;25.95;;
41663;SDS011;27353;50.906;7.248;2022-12-16T01:27:12;43.88;;;26.58;;
41663;SDS011;27353;50.906;7.248;2022-12-16T01:29:39;40.30;;;27.27;;
41663;SDS011;27353;50.906;7.248;2022-12-16T01:32:05;41.08;;;26.80;;
41663;SDS011;27353;50.906;7.248;2022-12-16T01:34:31;44.55;;;26.83;;
41663;SDS011;27353;50.906;7.248;2022-12-16T01:36:57;40.83;;;27.50;;
41663;SDS011;27353;50.906;7.248;2022-12-16T01:39:23;39.90;;;26.10;;
41663;SDS011;27353;50.906;7.248;2022-12-16T01:41:50;47.72;;;26.23;;
41663;SDS011;27353;50.906;7.248;2022-12-16T01:44:17;46.45;;;26.27;;
41663;SDS011;27353;50.906;7.248;2022-12-16T01:46:48;37.05;;;25.10;;
41663;SDS011;27353;50.906;7.248;2022-12-16T01:49:19;36.28;;;24.88;;
41663;SDS011;27353;50.906;7.248;2022-12-16T01:52:02;42.38;;;26.73;;
41663;SDS011;27353;50.906;7.248;2022-12-16T01:54:41;37.75;;;27.48;;
41663;SDS011;27353;50.906;7.248;2022-12-16T01:57:14;47.97;;;25.83;;
41663;SDS011;27353;50.906;7.248;2022-12-16T01:59:46;41.10;;;27.23;;
41663;SDS011;27353;50.906;7.248;2022-12-16T02:02:15;45.17;;;26.30;;
41663;SDS011;27353;50.906;7.248;2022-12-16T02:04:41;40.45;;;24.90;;
41663;SDS011;27353;50.906;7.248;2022-12-16T02:07:26;41.80;;;27.40;;
41663;SDS011;27353;50.906;7.248;2022-12-16T02:09:52;38.53;;;26.25;;
41663;SDS011;27353;50.906;7.248;2022-12-16T02:12:30;41.55;;;26.77;;
41663;SDS011;27353;50.906;7.248;2022-12-16T02:21:14;44.33;;;25.10;;
41663;SDS011;27353;50.906;7.248;2022-12-16T02:24:00;39.72;;;24.40;;
41663;SDS011;27353;50.906;7.248;2022-12-16T02:29:19;34.70;;;25.27;;
41663;SDS011;27353;50.906;7.248;2022-12-16T02:37:34;43.33;;;25.30;;
41663;SDS011;27353;50.906;7.248;2022-12-16T02:40:07;32.28;;;23.08;;
41663;SDS011;27353;50.906;7.248;2022-12-16T02:42:41;43.03;;;25.92;;
41663;SDS011;27353;50.906;7.248;2022-12-16T02:45:12;42.50;;;26.35;;
41663;SDS011;27353;50.906;7.248;2022-12-16T02:47:45;43.30;;;25.33;;
41663;SDS011;27353;50.906;7.248;2022-12-16T02:50:19;30.40;;;24.60;;
41663;SDS011;27353;50.906;7.248;2022-12-16T02:52:47;35.67;;;26.70;;
41663;SDS011;27353;50.906;7.248;2022-12-16T02:55:14;40.67;;;24.95;;
41663;SDS011;27353;50.906;7.248;2022-12-16T02:57:49;27.00;;;23.63;;
41663;SDS011;27353;50.906;7.248;2022-12-16T03:00:26;31.67;;;23.17;;
41663;SDS011;27353;50.906;7.248;2022-12-16T03:03:04;41.30;;;25.88;;
41663;SDS011;27353;50.906;7.248;2022-12-16T03:05:41;38.53;;;27.65;;
41663;SDS011;27353;50.906;7.248;2022-12-16T03:08:13;38.22;;;25.35;;
41663;SDS011;27353;50.906;7.248;2022-12-16T03:11:06;35.50;;;23.60;;
41663;SDS011;27353;50.906;7.248;2022-12-16T03:13:36;34.55;;;22.83;;
41663;SDS011;27353;50.906;7.248;2022-12-16T03:18:32;36.55;;;21.42;;
41663;SDS011;27353;50.906;7.248;2022-12-16T03:20:59;33.08;;;24.30;;
41663;SDS011;27353;50.906;7.248;2022-12-16T03:23:29;32.65;;;22.40;;
41663;SDS011;27353;50.906;7.248;2022-12-16T03:26:11;38.33;;;23.88;;
41663;SDS011;27353;50.906;7.248;2022-12-16T03:36:48;30.98;;;22.42;;
41663;SDS011;27353;50.906;7.248;2022-12-16T03:41:45;35.75;;;22.88;;
41663;SDS011;27353;50.906;7.248;2022-12-16T03:44:13;39.30;;;24.13;;
41663;SDS011;27353;50.906;7.248;2022-12-16T03:46:39;44.55;;;24.08;;
41663;SDS011;27353;50.906;7.248;2022-12-16T03:49:05;46.38;;;27.83;;
41663;SDS011;27353;50.906;7.248;2022-12-16T03:51:30;43.03;;;25.55;;
41663;SDS011;27353;50.906;7.248;2022-12-16T03:53:56;49.08;;;27.42;;
41663;SDS011;27353;50.906;7.248;2022-12-16T03:56:21;34.63;;;23.63;;
41663;SDS011;27353;50.906;7.248;2022-12-16T03:58:47;37.38;;;23.50;;
41663;SDS011;27353;50.906;7.248;2022-12-16T04:01:13;45.15;;;27.52;;
41663;SDS011;27353;50.906;7.248;2022-12-16T04:03:39;37.63;;;27.17;;
41663;SDS011;27353;50.906;7.248;2022-12-16T04:06:04;39.75;;;23.42;;
41663;SDS011;27353;50.906;7.248;2022-12-16T04:08:30;29.25;;;22.08;;
41663;SDS011;27353;50.906;7.248;2022-12-16T04:10:56;46.67;;;26.92;;
41663;SDS011;27353;50.906;7.248;2022-12-16T04:13:40;31.55;;;24.25;;
41663;SDS011;27353;50.906;7.248;2022-12-16T04:16:25;35.58;;;21.83;;
41663;SDS011;27353;50.906;7.248;2022-12-16T04:19:13;33.33;;;20.92;;
41663;SDS011;27353;50.906;7.248;2022-12-16T04:22:10;28.42;;;20.85;;
41663;SDS011;27353;50.906;7.248;2022-12-16T04:25:08;39.10;;;20.57;;
41663;SDS011;27353;50.906;7.248;2022-12-16T04:27:37;27.27;;;18.17;;
41663;SDS011;27353;50.906;7.248;2022-12-16T04:30:03;22.50;;;17.80;;
41663;SDS011;27353;50.906;7.248;2022-12-16T04:33:18;32.20;;;21.42;;
41663;SDS011;27353;50.906;7.248;2022-12-16T04:35:56;31.35;;;20.13;;
41663;SDS011;27353;50.906;7.248;2022-12-16T04:38:40;29.48;;;21.92;;
41663;SDS011;27353;50.906;7.248;2022-12-16T04:41:34;27.58;;;21.90;;
41663;SDS011;27353;50.906;7.248;2022-12-16T04:44:19;31.85;;;22.75;;
41663;SDS011;27353;50.906;7.248;2022-12-16T04:47:03;34.55;;;23.10;;
41663;SDS011;27353;50.906;7.248;2022-12-16T04:49:47;36.75;;;23.02;;
41663;SDS011;27353;50.906;7.248;2022-12-16T04:52:31;33.63;;;20.48;;
41663;SDS011;27353;50.906;7.248;2022-12-16T04:55:16;32.72;;;22.30;;
41663;SDS011;27353;50.906;7.248;2022-12-16T04:58:00;37.88;;;24.10;;
41663;SDS011;27353;50.906;7.248;2022-12-16T05:00:45;36.95;;;24.42;;
41663;SDS011;27353;50.906;7.248;2022-12-16T05:03:30;41.08;;;26.55;;
41663;SDS011;27353;50.906;7.248;2022-12-16T05:06:15;41.50;;;26.23;;
41663;SDS011;27353;50.906;7.248;2022-12-16T05:08:59;34.72;;;25.38;;
41663;SDS011;27353;50.906;7.248;2022-12-16T05:11:43;36.80;;;27.67;;
41663;SDS011;27353;50.906;7.248;2022-12-16T05:14:27;45.10;;;25.20;;
41663;SDS011;27353;50.906;7.248;2022-12-16T05:17:11;35.13;;;23.67;;
41663;SDS011;27353;50.906;7.248;2022-12-16T05:19:56;40.28;;;25.48;;
41663;SDS011;27353;50.906;7.248;2022-12-16T05:22:40;30.65;;;24.33;;
41663;SDS011;27353;50.906;7.248;2022-12-16T05:25:24;37.28;;;25.00;;
41663;SDS011;27353;50.906;7.248;2022-12-16T05:28:08;31.65;;;23.67;;
41663;SDS011;27353;50.906;7.248;2022-12-16T05:30:52;36.88;;;24.33;;
41663;SDS011;27353;50.906;7.248;2022-12-16T05:33:36;29.17;;;24.63;;
41663;SDS011;27353;50.906;7.248;2022-12-16T05:36:20;36.47;;;24.42;;
41663;SDS011;27353;50.906;7.248;2022-12-16T05:39:04;33.75;;;21.98;;
41663;SDS011;27353;50.906;7.248;2022-12-16T05:41:48;24.48;;;20.27;;
41663;SDS011;27353;50.906;7.248;2022-12-16T05:44:32;33.65;;;20.15;;
41663;SDS011;27353;50.906;7.248;2022-12-16T05:47:16;33.70;;;21.88;;
41663;SDS011;27353;50.906;7.248;2022-12-16T05:50:00;31.13;;;25.25;;
41663;SDS011;27353;50.906;7.248;2022-12-16T05:52:51;31.27;;;21.02;;
41663;SDS011;27353;50.906;7.248;2022-12-16T05:55:37;29.65;;;20.80;;
41663;SDS011;27353;50.906;7.248;2022-12-16T05:58:22;32.08;;;21.58;;
41663;SDS011;27353;50.906;7.248;2022-12-16T06:01:06;27.83;;;21.98;;
41663;SDS011;27353;50.906;7.248;2022-12-16T06:03:51;31.88;;;21.10;;
41663;SDS011;27353;50.906;7.248;2022-12-16T06:06:35;29.08;;;20.50;;
41663;SDS011;27353;50.906;7.248;2022-12-16T06:09:20;29.38;;;22.15;;
41663;SDS011;27353;50.906;7.248;2022-12-16T06:12:04;27.95;;;21.65;;
41663;SDS011;27353;50.906;7.248;2022-12-16T06:14:48;28.13;;;21.33;;
41663;SDS011;27353;50.906;7.248;2022-12-16T06:17:33;35.35;;;23.30;;
41663;SDS011;27353;50.906;7.248;2022-12-16T06:20:17;39.95;;;23.00;;
41663;SDS011;27353;50.906;7.248;2022-12-16T06:23:01;33.67;;;24.25;;
41663;SDS011;27353;50.906;7.248;2022-12-16T06:25:46;30.42;;;22.02;;
41663;SDS011;27353;50.906;7.248;2022-12-16T06:28:30;32.53;;;22.60;;
41663;SDS011;27353;50.906;7.248;2022-12-16T06:31:14;32.45;;;22.33;;
41663;SDS011;27353;50.906;7.248;2022-12-16T06:33:58;37.92;;;21.77;;
41663;SDS011;27353;50.906;7.248;2022-12-16T06:36:42;27.52;;;24.65;;
41663;SDS011;27353;50.906;7.248;2022-12-16T06:39:27;28.35;;;21.17;;
41663;SDS011;27353;50.906;7.248;2022-12-16T06:42:11;34.47;;;21.17;;
41663;SDS011;27353;50.906;7.248;2022-12-16T06:44:54;34.60;;;25.38;;
41663;SDS011;27353;50.906;7.248;2022-12-16T06:47:39;28.88;;;20.25;;
41663;SDS011;27353;50.906;7.248;2022-12-16T06:50:25;35.33;;;22.15;;
41663;SDS011;27353;50.906;7.248;2022-12-16T06:53:10;36.38;;;22.83;;
41663;SDS011;27353;50.906;7.248;2022-12-16T06:55:54;31.98;;;21.52;;
41663;SDS011;27353;50.906;7.248;2022-12-16T06:58:38;36.33;;;23.58;;
41663;SDS011;27353;50.906;7.248;2022-12-16T07:01:22;38.35;;;22.02;;
41663;SDS011;27353;50.906;7.248;2022-12-16T07:04:07;40.08;;;24.45;;
41663;SDS011;27353;50.906;7.248;2022-12-16T07:06:51;25.55;;;22.20;;
41663;SDS011;27353;50.906;7.248;2022-12-16T07:09:35;32.13;;;24.08;;
41663;SDS011;27353;50.906;7.248;2022-12-16T07:12:19;32.45;;;23.25;;
41663;SDS011;27353;50.906;7.248;2022-12-16T07:15:03;38.35;;;24.40;;
41663;SDS011;27353;50.906;7.248;2022-12-16T07:17:48;32.67;;;24.48;;
41663;SDS011;27353;50.906;7.248;2022-12-16T07:20:32;34.45;;;25.42;;
41663;SDS011;27353;50.906;7.248;2022-12-16T07:23:16;32.58;;;23.52;;
41663;SDS011;27353;50.906;7.248;2022-12-16T07:26:00;35.90;;;24.65;;
41663;SDS011;27353;50.906;7.248;2022-12-16T07:28:44;43.05;;;22.92;;
41663;SDS011;27353;50.906;7.248;2022-12-16T07:31:28;32.05;;;22.67;;
41663;SDS011;27353;50.906;7.248;2022-12-16T07:34:12;29.17;;;22.17;;
41663;SDS011;27353;50.906;7.248;2022-12-16T07:36:56;41.67;;;23.67;;
41663;SDS011;27353;50.906;7.248;2022-12-16T07:39:40;26.38;;;19.45;;
41663;SDS011;27353;50.906;7.248;2022-12-16T07:42:24;34.55;;;21.98;;
41663;SDS011;27353;50.906;7.248;2022-12-16T07:45:09;37.22;;;21.00;;
41663;SDS011;27353;50.906;7.248;2022-12-16T07:47:53;28.38;;;21.48;;
41663;SDS011;27353;50.906;7.248;2022-12-16T07:50:37;26.75;;;20.17;;
41663;SDS011;27353;50.906;7.248;2022-12-16T07:53:22;27.65;;;19.25;;
41663;SDS011;27353;50.906;7.248;2022-12-16T07:56:07;30.40;;;20.17;;
41663;SDS011;27353;50.906;7.248;2022-12-16T07:58:51;34.13;;;23.38;;
41663;SDS011;27353;50.906;7.248;2022-12-16T08:01:35;42.03;;;22.50;;
41663;SDS011;27353;50.906;7.248;2022-12-16T08:04:19;34.17;;;22.40;;
41663;SDS011;27353;50.906;7.248;2022-12-16T08:07:04;29.98;;;22.77;;
41663;SDS011;27353;50.906;7.248;2022-12-16T08:09:48;34.50;;;23.80;;
41663;SDS011;27353;50.906;7.248;2022-12-16T08:12:32;24.73;;;21.60;;
41663;SDS011;27353;50.906;7.248;2022-12-16T08:15:16;29.35;;;21.70;;
41663;SDS011;27353;50.906;7.248;2022-12-16T08:18:00;28.33;;;23.83;;
41663;SDS011;27353;50.906;7.248;2022-12-16T08:20:44;39.28;;;24.23;;
41663;SDS011;27353;50.906;7.248;2022-12-16T08:23:28;29.13;;;25.30;;
41663;SDS011;27353;50.906;7.248;2022-12-16T08:26:12;31.98;;;25.60;;
41663;SDS011;27353;50.906;7.248;2022-12-16T08:28:56;33.38;;;27.42;;
41663;SDS011;27353;50.906;7.248;2022-12-16T08:31:42;42.08;;;29.63;;
41663;SDS011;27353;50.906;7.248;2022-12-16T08:34:27;38.58;;;30.00;;
41663;SDS011;27353;50.906;7.248;2022-12-16T08:37:11;36.75;;;29.23;;
41663;SDS011;27353;50.906;7.248;2022-12-16T08:39:55;40.15;;;28.25;;
41663;SDS011;27353;50.906;7.248;2022-12-16T08:42:39;36.10;;;25.75;;
41663;SDS011;27353;50.906;7.248;2022-12-16T08:45:23;36.10;;;27.20;;
41663;SDS011;27353;50.906;7.248;2022-12-16T08:48:08;39.47;;;25.95;;
41663;SDS011;27353;50.906;7.248;2022-12-16T08:50:53;35.25;;;25.27;;
41663;SDS011;27353;50.906;7.248;2022-12-16T08:53:37;33.65;;;26.48;;
41663;SDS011;27353;50.906;7.248;2022-12-16T08:56:23;30.08;;;25.30;;
41663;SDS011;27353;50.906;7.248;2022-12-16T08:59:07;37.35;;;26.38;;
41663;SDS011;27353;50.906;7.248;2022-12-16T09:01:52;33.03;;;25.80;;
41663;SDS011;27353;50.906;7.248;2022-12-16T09:04:37;42.75;;;28.30;;
41663;SDS011;27353;50.906;7.248;2022-12-16T09:07:21;30.02;;;22.55;;
41663;SDS011;27353;50.906;7.248;2022-12-16T09:10:05;32.42;;;26.13;;
41663;SDS011;27353;50.906;7.248;2022-12-16T09:12:49;26.85;;;23.75;;
41663;SDS011;27353;50.906;7.248;2022-12-16T09:15:33;33.47;;;23.02;;
41663;SDS011;27353;50.906;7.248;2022-12-16T09:18:17;28.33;;;23.20;;
41663;SDS011;27353;50.906;7.248;2022-12-16T09:21:02;27.67;;;22.05;;
41663;SDS011;27353;50.906;7.248;2022-12-16T09:23:46;30.58;;;22.75;;
41663;SDS011;27353;50.906;7.248;2022-12-16T09:26:30;36.92;;;24.27;;
41663;SDS011;27353;50.906;7.248;2022-12-16T09:29:14;32.30;;;22.20;;
41663;SDS011;27353;50.906;7.248;2022-12-16T09:31:58;26.10;;;22.13;;
41663;SDS011;27353;50.906;7.248;2022-12-16T09:34:42;29.55;;;21.58;;
41663;SDS011;27353;50.906;7.248;2022-12-16T09:37:26;27.65;;;19.83;;
41663;SDS011;27353;50.906;7.248;2022-12-16T09:40:14;31.98;;;21.27;;
41663;SDS011;27353;50.906;7.248;2022-12-16T09:46:01;40.80;;;24.52;;
41663;SDS011;27353;50.906;7.248;2022-12-16T09:51:59;40.72;;;26.00;;
41663;SDS011;27353;50.906;7.248;2022-12-16T09:54:46;37.55;;;25.73;;
41663;SDS011;27353;50.906;7.248;2022-12-16T09:57:31;40.60;;;28.90;;
41663;SDS011;27353;50.906;7.248;2022-12-16T10:00:19;32.50;;;26.92;;
41663;SDS011;27353;50.906;7.248;2022-12-16T10:03:12;31.95;;;28.27;;
41663;SDS011;27353;50.906;7.248;2022-12-16T10:06:25;33.47;;;28.30;;
41663;SDS011;27353;50.906;7.248;2022-12-16T10:09:57;31.77;;;28.38;;
41663;SDS011;27353;50.906;7.248;2022-12-16T10:21:57;35.58;;;32.28;;
41663;SDS011;27353;50.906;7.248;2022-12-16T10:27:59;36.72;;;33.10;;
41663;SDS011;27353;50.906;7.248;2022-12-16T10:30:59;39.38;;;35.15;;
41663;SDS011;27353;50.906;7.248;2022-12-16T10:33:54;34.95;;;31.67;;
41663;SDS011;27353;50.906;7.248;2022-12-16T10:36:38;33.22;;;30.10;;
41663;SDS011;27353;50.906;7.248;2022-12-16T10:39:29;34.25;;;31.13;;
41663;SDS011;27353;50.906;7.248;2022-12-16T10:42:23;35.15;;;31.75;;
41663;SDS011;27353;50.906;7.248;2022-12-16T10:48:04;37.00;;;33.38;;
41663;SDS011;27353;50.906;7.248;2022-12-16T10:50:48;37.63;;;33.58;;
41663;SDS011;27353;50.906;7.248;2022-12-16T10:53:32;36.53;;;32.83;;
41663;SDS011;27353;50.906;7.248;2022-12-16T10:59:07;36.88;;;33.22;;
41663;SDS011;27353;50.906;7.248;2022-12-16T11:02:00;35.40;;;32.15;;
41663;SDS011;27353;50.906;7.248;2022-12-16T11:04:47;33.53;;;30.23;;
41663;SDS011;27353;50.906;7.248;2022-12-16T11:07:37;33.42;;;30.27;;
41663;SDS011;27353;50.906;7.248;2022-12-16T11:10:34;34.13;;;30.80;;
41663;SDS011;27353;50.906;7.248;2022-12-16T11:13:25;35.00;;;31.90;;
41663;SDS011;27353;50.906;7.248;2022-12-16T11:18:56;36.55;;;33.08;;
41663;SDS011;27353;50.906;7.248;2022-12-16T11:21:41;36.80;;;33.38;;
41663;SDS011;27353;50.906;7.248;2022-12-16T11:24:25;37.88;;;33.95;;
41663;SDS011;27353;50.906;7.248;2022-12-16T11:30:16;38.67;;;34.65;;
41663;SDS011;27353;50.906;7.248;2022-12-16T11:33:08;37.30;;;33.95;;
41663;SDS011;27353;50.906;7.248;2022-12-16T11:36:02;39.88;;;34.10;;
41663;SDS011;27353;50.906;7.248;2022-12-16T11:38:49;37.67;;;33.75;;
41663;SDS011;27353;50.906;7.248;2022-12-16T11:41:37;35.22;;;32.00;;
41663;SDS011;27353;50.906;7.248;2022-12-16T11:50:16;42.95;;;38.35;;
41663;SDS011;27353;50.906;7.248;2022-12-16T11:53:06;41.83;;;37.00;;
41663;SDS011;27353;50.906;7.248;2022-12-16T11:56:21;39.03;;;34.85;;
41663;SDS011;27353;50.906;7.248;2022-12-16T11:59:11;41.22;;;34.03;;
41663;SDS011;27353;50.906;7.248;2022-12-16T12:01:58;38.85;;;35.05;;
41663;SDS011;27353;50.906;7.248;2022-12-16T12:04:47;48.47;;;42.72;;
41663;SDS011;27353;50.906;7.248;2022-12-16T12:10:55;42.08;;;35.67;;
41663;SDS011;27353;50.906;7.248;2022-12-16T12:16:38;41.25;;;36.75;;
41663;SDS011;27353;50.906;7.248;2022-12-16T12:22:43;39.55;;;35.47;;
41663;SDS011;27353;50.906;7.248;2022-12-16T12:28:34;42.60;;;38.13;;
41663;SDS011;27353;50.906;7.248;2022-12-16T12:31:28;39.08;;;34.92;;
41663;SDS011;27353;50.906;7.248;2022-12-16T12:37:30;38.63;;;34.75;;
41663;SDS011;27353;50.906;7.248;2022-12-16T12:46:35;38.88;;;34.40;;
41663;SDS011;27353;50.906;7.248;2022-12-16T12:49:34;40.72;;;36.17;;
41663;SDS011;27353;50.906;7.248;2022-12-16T12:55:31;38.78;;;34.45;;
41663;SDS011;27353;50.906;7.248;2022-12-16T12:58:38;39.70;;;35.45;;
41663;SDS011;27353;50.906;7.248;2022-12-16T13:01:25;41.05;;;36.15;;
41663;SDS011;27353;50.906;7.248;2022-12-16T13:04:17;47.33;;;37.97;;
41663;SDS011;27353;50.906;7.248;2022-12-16T13:07:04;46.25;;;37.78;;
41663;SDS011;27353;50.906;7.248;2022-12-16T13:13:28;38.95;;;34.78;;
41663;SDS011;27353;50.906;7.248;2022-12-16T13:16:59;47.83;;;35.67;;
41663;SDS011;27353;50.906;7.248;2022-12-16T13:28:36;44.75;;;31.02;;
41663;SDS011;27353;50.906;7.248;2022-12-16T13:31:21;36.95;;;31.83;;
41663;SDS011;27353;50.906;7.248;2022-12-16T13:34:19;47.92;;;31.73;;
41663;SDS011;27353;50.906;7.248;2022-12-16T13:37:04;49.92;;;34.58;;
41663;SDS011;27353;50.906;7.248;2022-12-16T13:40:02;43.80;;;33.45;;
41663;SDS011;27353;50.906;7.248;2022-12-16T13:42:50;56.75;;;36.03;;
41663;SDS011;27353;50.906;7.248;2022-12-16T13:45:36;47.28;;;33.78;;
41663;SDS011;27353;50.906;7.248;2022-12-16T13:54:35;41.67;;;31.75;;
41663;SDS011;27353;50.906;7.248;2022-12-16T13:57:28;56.15;;;35.35;;
41663;SDS011;27353;50.906;7.248;2022-12-16T14:00:22;49.50;;;34.08;;
41663;SDS011;27353;50.906;7.248;2022-12-16T14:03:14;50.22;;;35.38;;
41663;SDS011;27353;50.906;7.248;2022-12-16T14:06:03;51.55;;;35.83;;
41663;SDS011;27353;50.906;7.248;2022-12-16T14:08:59;42.67;;;33.42;;
41663;SDS011;27353;50.906;7.248;2022-12-16T14:12:00;45.78;;;33.97;;
41663;SDS011;27353;50.906;7.248;2022-12-16T14:14:55;47.15;;;32.35;;
41663;SDS011;27353;50.906;7.248;2022-12-16T14:17:58;70.05;;;43.40;;
41663;SDS011;27353;50.906;7.248;2022-12-16T14:20:53;60.63;;;35.30;;
41663;SDS011;27353;50.906;7.248;2022-12-16T14:23:56;57.17;;;31.13;;
41663;SDS011;27353;50.906;7.248;2022-12-16T14:26:46;48.00;;;35.75;;
41663;SDS011;27353;50.906;7.248;2022-12-16T14:29:32;60.47;;;41.40;;
41663;SDS011;27353;50.906;7.248;2022-12-16T14:32:29;63.95;;;35.95;;
41663;SDS011;27353;50.906;7.248;2022-12-16T14:35:16;58.63;;;39.20;;
41663;SDS011;27353;50.906;7.248;2022-12-16T14:38:12;65.65;;;38.05;;
41663;SDS011;27353;50.906;7.248;2022-12-16T14:41:12;60.85;;;41.08;;
41663;SDS011;27353;50.906;7.248;2022-12-16T14:43:58;46.92;;;32.13;;
41663;SDS011;27353;50.906;7.248;2022-12-16T14:46:47;57.58;;;33.50;;
41663;SDS011;27353;50.906;7.248;2022-12-16T14:49:33;44.28;;;32.25;;
41663;SDS011;27353;50.906;7.248;2022-12-16T14:52:19;50.17;;;32.53;;
41663;SDS011;27353;50.906;7.248;2022-12-16T14:55:15;47.05;;;32.53;;
41663;SDS011;27353;50.906;7.248;2022-12-16T15:00:56;52.80;;;35.28;;
41663;SDS011;27353;50.906;7.248;2022-12-16T15:03:45;78.15;;;43.55;;
41663;SDS011;27353;50.906;7.248;2022-12-16T15:06:32;63.78;;;40.08;;
41663;SDS011;27353;50.906;7.248;2022-12-16T15:09:23;60.90;;;37.83;;
41663;SDS011;27353;50.906;7.248;2022-12-16T15:12:12;80.65;;;49.53;;
41663;SDS011;27353;50.906;7.248;2022-12-16T15:15:02;80.63;;;47.60;;
41663;SDS011;27353;50.906;7.248;2022-12-16T15:17:50;67.10;;;43.20;;
41663;SDS011;27353;50.906;7.248;2022-12-16T15:20:40;66.45;;;44.05;;
41663;SDS011;27353;50.906;7.248;2022-12-16T15:23:40;67.93;;;43.38;;
41663;SDS011;27353;50.906;7.248;2022-12-16T15:26:28;65.50;;;41.28;;
41663;SDS011;27353;50.906;7.248;2022-12-16T15:32:28;51.33;;;34.20;;
41663;SDS011;27353;50.906;7.248;2022-12-16T15:35:30;48.63;;;36.42;;
41663;SDS011;27353;50.906;7.248;2022-12-16T15:38:17;55.65;;;32.67;;
41663;SDS011;27353;50.906;7.248;2022-12-16T15:41:15;51.17;;;35.03;;
41663;SDS011;27353;50.906;7.248;2022-12-16T15:44:12;57.33;;;36.42;;
41663;SDS011;27353;50.906;7.248;2022-12-16T15:46:58;66.63;;;40.08;;
41663;SDS011;27353;50.906;7.248;2022-12-16T15:49:43;68.03;;;36.95;;
41663;SDS011;27353;50.906;7.248;2022-12-16T15:52:34;62.80;;;38.92;;
41663;SDS011;27353;50.906;7.248;2022-12-16T15:55:28;117.35;;;64.47;;
41663;SDS011;27353;50.906;7.248;2022-12-16T15:58:24;122.00;;;65.90;;
41663;SDS011;27353;50.906;7.248;2022-12-16T16:01:09;105.10;;;62.13;;
41663;SDS011;27353;50.906;7.248;2022-12-16T16:03:55;96.40;;;55.55;;
41663;SDS011;27353;50.906;7.248;2022-12-16T16:06:43;86.25;;;55.63;;
41663;SDS011;27353;50.906;7.248;2022-12-16T16:09:33;82.88;;;48.28;;
41663;SDS011;27353;50.906;7.248;2022-12-16T16:12:19;78.43;;;46.03;;
41663;SDS011;27353;50.906;7.248;2022-12-16T16:15:05;87.82;;;51.83;;
41663;SDS011;27353;50.906;7.248;2022-12-16T16:17:53;94.45;;;50.35;;
41663;SDS011;27353;50.906;7.248;2022-12-16T16:20:41;86.88;;;47.10;;
41663;SDS011;27353;50.906;7.248;2022-12-16T16:23:26;134.65;;;80.03;;
41663;SDS011;27353;50.906;7.248;2022-12-16T16:26:10;131.05;;;70.45;;
41663;SDS011;27353;50.906;7.248;2022-12-16T16:28:57;133.32;;;67.90;;
41663;SDS011;27353;50.906;7.248;2022-12-16T16:31:41;120.55;;;66.40;;
41663;SDS011;27353;50.906;7.248;2022-12-16T16:34:25;109.30;;;62.20;;
41663;SDS011;27353;50.906;7.248;2022-12-16T16:37:12;83.32;;;52.53;;
41663;SDS011;27353;50.906;7.248;2022-12-16T16:39:57;85.07;;;48.45;;
41663;SDS011;27353;50.906;7.248;2022-12-16T16:42:42;76.63;;;44.53;;
41663;SDS011;27353;50.906;7.248;2022-12-16T16:45:43;83.93;;;44.13;;
41663;SDS011;27353;50.906;7.248;2022-12-16T16:48:27;95.47;;;49.30;;
41663;SDS011;27353;50.906;7.248;2022-12-16T16:51:12;98.03;;;49.72;;
41663;SDS011;27353;50.906;7.248;2022-12-16T16:53:56;110.13;;;49.75;;
41663;SDS011;27353;50.906;7.248;2022-12-16T16:56:40;88.65;;;49.00;;
41663;SDS011;27353;50.906;7.248;2022-12-16T16:59:24;95.47;;;46.58;;
41663;SDS011;27353;50.906;7.248;2022-12-16T17:02:19;110.95;;;51.47;;
41663;SDS011;27353;50.906;7.248;2022-12-16T17:05:05;153.25;;;74.20;;
41663;SDS011;27353;50.906;7.248;2022-12-16T17:07:49;410.60;;;219.52;;
41663;SDS011;27353;50.906;7.248;2022-12-16T17:10:33;224.70;;;124.53;;
41663;SDS011;27353;50.906;7.248;2022-12-16T17:13:18;222.73;;;106.95;;
41663;SDS011;27353;50.906;7.248;2022-12-16T17:16:02;131.55;;;63.08;;
41663;SDS011;27353;50.906;7.248;2022-12-16T17:18:47;133.00;;;74.57;;
41663;SDS011;27353;50.906;7.248;2022-12-16T17:21:31;92.07;;;48.53;;
41663;SDS011;27353;50.906;7.248;2022-12-16T17:24:15;99.32;;;46.08;;
41663;SDS011;27353;50.906;7.248;2022-12-16T17:27:05;88.93;;;47.83;;
41663;SDS011;27353;50.906;7.248;2022-12-16T17:30:08;71.53;;;40.45;;
41663;SDS011;27353;50.906;7.248;2022-12-16T17:33:02;79.07;;;41.03;;
41663;SDS011;27353;50.906;7.248;2022-12-16T17:35:47;86.03;;;45.38;;
41663;SDS011;27353;50.906;7.248;2022-12-16T17:38:42;97.93;;;47.13;;
41663;SDS011;27353;50.906;7.248;2022-12-16T17:41:27;88.75;;;47.88;;
41663;SDS011;27353;50.906;7.248;2022-12-16T17:44:13;88.38;;;46.58;;
41663;SDS011;27353;50.906;7.248;2022-12-16T17:46:58;99.35;;;50.03;;